Time;durP1;ratioP1;P1;durP2;ratioP2;P2;SDS_P1;SDS_P2;PMS_P1;PMS_P2;Temp;Humidity;BMP_temperature;BMP_pressure;BME280_temperature;BME280_humidity;BME280_pressure;Samples;Min_cycle;Max_cycle;Signal;HPM_P1;HPM_P2
2022/03/07 00:00:47;;;;;;;13.23;2.08;;;;;;;;;;4899214;29;20559;-68
2022/03/07 00:03:15;;;;;;;11.65;2.28;;;;;;;;;;4899788;29;20060;-68
2022/03/07 00:05:42;;;;;;;12.73;2.13;;;;;;;;;;4898373;29;20059;-68
2022/03/07 00:08:10;;;;;;;9.40;2.05;;;;;;;;;;4900437;29;20052;-68
2022/03/07 00:10:38;;;;;;;10.80;2.10;;;;;;;;;;4917249;29;20060;-68
2022/03/07 00:13:05;;;;;;;13.45;2.20;;;;;;;;;;4900658;29;21173;-68
2022/03/07 00:15:32;;;;;;;11.13;2.25;;;;;;;;;;4919724;29;20138;-68
2022/03/07 00:17:59;;;;;;;12.70;2.15;;;;;;;;;;4920900;29;20483;-68
2022/03/07 00:20:26;;;;;;;8.23;1.83;;;;;;;;;;4914111;29;20048;-68
2022/03/07 00:22:54;;;;;;;11.75;2.22;;;;;;;;;;4919567;29;20477;-68
2022/03/07 00:25:22;;;;;;;16.17;2.67;;;;;;;;;;4899008;29;20056;-68
2022/03/07 00:27:49;;;;;;;10.30;2.05;;;;;;;;;;4922027;29;20044;-69
2022/03/07 00:30:18;;;;;;;10.68;2.08;;;;;;;;;;4905241;29;20579;-68
2022/03/07 00:32:45;;;;;;;14.50;2.33;;;;;;;;;;4903300;29;20059;-68
2022/03/07 00:35:13;;;;;;;17.02;2.38;;;;;;;;;;4896803;29;20127;-68
2022/03/07 00:37:40;;;;;;;14.77;2.05;;;;;;;;;;4905660;29;20084;-68
2022/03/07 00:40:09;;;;;;;10.35;2.15;;;;;;;;;;4904726;29;20055;-68
2022/03/07 00:42:38;;;;;;;14.23;2.42;;;;;;;;;;4916886;29;20071;-68
2022/03/07 00:45:06;;;;;;;13.10;2.33;;;;;;;;;;4919792;29;20067;-68
2022/03/07 00:47:34;;;;;;;15.25;2.17;;;;;;;;;;4899956;29;20058;-68
2022/03/07 00:50:01;;;;;;;10.75;1.90;;;;;;;;;;4918060;29;20051;-68
2022/03/07 00:52:28;;;;;;;14.90;2.53;;;;;;;;;;4897481;29;20094;-68
2022/03/07 00:54:55;;;;;;;12.85;2.22;;;;;;;;;;4917513;29;20062;-68
2022/03/07 00:57:22;;;;;;;15.65;2.10;;;;;;;;;;4917837;29;20059;-68
2022/03/07 00:59:51;;;;;;;15.63;2.38;;;;;;;;;;4895284;29;20079;-68
2022/03/07 01:02:18;;;;;;;13.95;2.20;;;;;;;;;;4897486;29;20067;-68
2022/03/07 01:04:45;;;;;;;17.17;2.53;;;;;;;;;;4901822;29;20070;-68
2022/03/07 01:07:13;;;;;;;11.65;1.98;;;;;;;;;;4917431;29;20116;-68
2022/03/07 01:09:40;;;;;;;6.22;1.95;;;;;;;;;;4903137;29;20052;-68
2022/03/07 01:12:07;;;;;;;18.02;2.15;;;;;;;;;;4921525;29;20768;-68
2022/03/07 01:14:35;;;;;;;12.88;2.28;;;;;;;;;;4917419;29;20062;-68
2022/03/07 01:17:04;;;;;;;12.82;2.38;;;;;;;;;;4897435;29;20199;-68
2022/03/07 01:19:31;;;;;;;14.93;2.50;;;;;;;;;;4913274;29;20059;-68
2022/03/07 01:21:58;;;;;;;13.73;1.80;;;;;;;;;;4902797;29;20107;-68
2022/03/07 01:24:25;;;;;;;11.02;2.05;;;;;;;;;;4915562;29;20059;-68
2022/03/07 01:26:53;;;;;;;14.02;2.53;;;;;;;;;;4899976;29;20096;-69
2022/03/07 01:29:20;;;;;;;8.20;1.83;;;;;;;;;;4916953;29;20048;-69
2022/03/07 01:31:47;;;;;;;9.30;2.00;;;;;;;;;;4915240;29;20044;-68
2022/03/07 01:34:16;;;;;;;12.55;2.40;;;;;;;;;;4921922;29;20059;-69
2022/03/07 01:36:43;;;;;;;12.63;2.03;;;;;;;;;;4917559;29;20067;-68
2022/03/07 01:39:10;;;;;;;9.65;2.15;;;;;;;;;;4914061;29;20128;-69
2022/03/07 01:41:38;;;;;;;16.90;2.65;;;;;;;;;;4898693;29;20047;-68
2022/03/07 01:44:05;;;;;;;10.02;2.03;;;;;;;;;;4915738;29;20063;-68
2022/03/07 01:46:32;;;;;;;9.32;2.25;;;;;;;;;;4896566;29;20111;-68
2022/03/07 01:49:00;;;;;;;11.85;2.03;;;;;;;;;;4916787;29;20391;-68
2022/03/07 01:51:28;;;;;;;8.38;2.38;;;;;;;;;;4914602;29;20051;-68
2022/03/07 01:53:55;;;;;;;8.80;2.50;;;;;;;;;;4915477;29;20056;-68
2022/03/07 01:56:23;;;;;;;13.00;1.92;;;;;;;;;;4902099;29;20423;-68
2022/03/07 01:58:50;;;;;;;14.73;2.15;;;;;;;;;;4915556;29;20431;-68
2022/03/07 02:01:17;;;;;;;17.48;2.30;;;;;;;;;;4899156;29;20079;-68
2022/03/07 02:03:44;;;;;;;14.13;2.88;;;;;;;;;;4913681;29;20064;-68
2022/03/07 02:06:12;;;;;;;9.60;2.28;;;;;;;;;;4915049;29;20415;-68
2022/03/07 02:08:40;;;;;;;8.85;2.58;;;;;;;;;;4898397;29;20154;-68
2022/03/07 02:11:08;;;;;;;8.63;2.08;;;;;;;;;;4899419;29;20060;-69
2022/03/07 02:13:35;;;;;;;9.00;2.40;;;;;;;;;;4898274;29;20059;-69
2022/03/07 02:16:03;;;;;;;10.27;2.50;;;;;;;;;;4916897;29;20074;-68
2022/03/07 02:18:35;;;;;;;14.18;2.20;;;;;;;;;;4902524;29;20142;-68
2022/03/07 02:21:05;;;;;;;13.60;2.97;;;;;;;;;;4869063;29;20186;-68
2022/03/07 02:23:33;;;;;;;10.90;2.60;;;;;;;;;;4916009;29;20048;-68
2022/03/07 02:26:01;;;;;;;11.88;2.53;;;;;;;;;;4899952;29;20060;-68
2022/03/07 02:28:28;;;;;;;12.18;2.50;;;;;;;;;;4899525;29;20055;-68
2022/03/07 02:30:55;;;;;;;12.90;2.75;;;;;;;;;;4915496;29;20439;-68
2022/03/07 02:33:23;;;;;;;11.65;3.20;;;;;;;;;;4897515;29;20062;-68
2022/03/07 02:35:50;;;;;;;10.65;3.63;;;;;;;;;;4915699;29;20441;-68
2022/03/07 02:38:17;;;;;;;10.00;2.92;;;;;;;;;;4913992;29;20055;-68
2022/03/07 02:40:46;;;;;;;11.63;2.65;;;;;;;;;;4901228;29;20067;-69
2022/03/07 02:43:14;;;;;;;17.15;2.95;;;;;;;;;;4916090;29;20834;-68
2022/03/07 02:45:42;;;;;;;11.23;3.10;;;;;;;;;;4920076;29;20146;-68
2022/03/07 02:48:09;;;;;;;8.10;2.80;;;;;;;;;;4917181;29;20103;-69
2022/03/07 02:50:36;;;;;;;11.13;3.17;;;;;;;;;;4897083;29;20840;-68
2022/03/07 02:53:03;;;;;;;9.77;3.50;;;;;;;;;;4917198;29;20145;-68
2022/03/07 02:55:31;;;;;;;12.00;3.40;;;;;;;;;;4916069;29;20060;-69
2022/03/07 02:57:59;;;;;;;12.73;3.05;;;;;;;;;;4899262;29;20055;-68
2022/03/07 03:00:27;;;;;;;15.25;3.20;;;;;;;;;;4894491;29;20059;-68
2022/03/07 03:02:54;;;;;;;15.38;3.50;;;;;;;;;;4918316;29;20112;-68
2022/03/07 03:05:21;;;;;;;12.35;3.17;;;;;;;;;;4897635;29;20715;-68
2022/03/07 03:07:50;;;;;;;11.57;3.03;;;;;;;;;;4899618;29;20062;-68
2022/03/07 03:10:18;;;;;;;12.50;3.10;;;;;;;;;;4916647;29;20060;-69
2022/03/07 03:12:45;;;;;;;11.07;2.78;;;;;;;;;;4912123;29;20113;-68
2022/03/07 03:15:14;;;;;;;11.07;2.63;;;;;;;;;;4896903;29;20107;-68
2022/03/07 03:17:42;;;;;;;10.93;2.83;;;;;;;;;;4918205;29;20043;-68
2022/03/07 03:20:10;;;;;;;9.75;2.53;;;;;;;;;;4914243;29;20593;-68
2022/03/07 03:22:37;;;;;;;7.40;2.35;;;;;;;;;;4917730;29;20059;-69
2022/03/07 03:25:05;;;;;;;12.55;2.70;;;;;;;;;;4916155;29;20070;-68
2022/03/07 03:27:32;;;;;;;11.27;2.15;;;;;;;;;;4914849;29;20063;-68
2022/03/07 03:30:00;;;;;;;8.38;2.58;;;;;;;;;;4918305;29;20051;-68
2022/03/07 03:32:30;;;;;;;12.95;3.05;;;;;;;;;;4900755;29;20056;-68
2022/03/07 03:34:57;;;;;;;8.82;2.70;;;;;;;;;;4915365;29;20661;-68
2022/03/07 03:37:25;;;;;;;11.40;2.70;;;;;;;;;;4913601;29;20106;-68
2022/03/07 03:39:53;;;;;;;12.35;3.00;;;;;;;;;;4898429;29;20688;-68
2022/03/07 03:42:21;;;;;;;10.48;2.15;;;;;;;;;;4897835;29;20062;-68
2022/03/07 03:44:48;;;;;;;8.93;2.20;;;;;;;;;;4916554;29;20047;-68
2022/03/07 03:47:16;;;;;;;14.02;2.50;;;;;;;;;;4915279;29;20054;-68
2022/03/07 03:49:45;;;;;;;11.25;2.58;;;;;;;;;;4896374;29;20131;-68
2022/03/07 03:52:12;;;;;;;8.57;2.53;;;;;;;;;;4901457;29;20124;-68
2022/03/07 03:54:39;;;;;;;10.25;2.20;;;;;;;;;;4912458;29;20052;-68
2022/03/07 03:57:07;;;;;;;11.95;2.90;;;;;;;;;;4915934;29;20062;-68
2022/03/07 03:59:34;;;;;;;8.63;2.60;;;;;;;;;;4899106;29;20059;-68
2022/03/07 04:02:02;;;;;;;12.07;2.55;;;;;;;;;;4914807;29;20060;-68
2022/03/07 04:04:29;;;;;;;7.72;2.40;;;;;;;;;;4897752;29;20060;-68
2022/03/07 04:06:57;;;;;;;11.15;2.72;;;;;;;;;;4896399;29;20409;-68
2022/03/07 04:09:24;;;;;;;6.18;2.35;;;;;;;;;;4915261;29;20058;-68
2022/03/07 04:11:54;;;;;;;10.23;2.28;;;;;;;;;;4913451;29;20779;-69
2022/03/07 04:14:21;;;;;;;10.70;2.65;;;;;;;;;;4901671;29;20156;-69
2022/03/07 04:16:48;;;;;;;8.93;2.55;;;;;;;;;;4916315;29;20052;-68
2022/03/07 04:19:16;;;;;;;7.75;1.88;;;;;;;;;;4896991;29;20055;-68
2022/03/07 04:21:44;;;;;;;5.18;1.88;;;;;;;;;;4898891;29;20062;-68
2022/03/07 04:24:13;;;;;;;11.02;2.15;;;;;;;;;;4916645;29;20050;-68
2022/03/07 04:26:41;;;;;;;8.95;2.03;;;;;;;;;;4895243;29;20392;-68
2022/03/07 04:29:08;;;;;;;9.60;1.98;;;;;;;;;;4913638;29;20051;-68
2022/03/07 04:31:36;;;;;;;6.78;2.10;;;;;;;;;;4913610;29;20144;-68
2022/03/07 04:34:03;;;;;;;9.32;2.60;;;;;;;;;;4917565;29;20136;-68
2022/03/07 04:36:32;;;;;;;9.23;2.30;;;;;;;;;;4914184;29;20043;-68
2022/03/07 04:38:59;;;;;;;9.40;2.25;;;;;;;;;;4898883;29;20043;-68
2022/03/07 04:41:28;;;;;;;8.48;2.45;;;;;;;;;;4917599;29;20115;-68
2022/03/07 04:43:55;;;;;;;10.30;2.15;;;;;;;;;;4915934;29;20131;-69
2022/03/07 04:46:22;;;;;;;8.00;2.10;;;;;;;;;;4897916;29;20117;-68
2022/03/07 04:48:50;;;;;;;9.32;2.40;;;;;;;;;;4898936;29;20060;-68
2022/03/07 04:51:17;;;;;;;22.77;3.13;;;;;;;;;;4900982;29;20043;-68
2022/03/07 04:53:44;;;;;;;8.80;2.40;;;;;;;;;;4901182;29;20139;-68
2022/03/07 04:56:12;;;;;;;7.63;2.40;;;;;;;;;;4902044;29;20051;-68
2022/03/07 04:58:40;;;;;;;10.73;2.30;;;;;;;;;;4896716;29;20134;-68
2022/03/07 05:01:09;;;;;;;9.88;3.00;;;;;;;;;;4922121;29;20733;-68
2022/03/07 05:03:36;;;;;;;10.18;2.35;;;;;;;;;;4918570;29;20461;-68
2022/03/07 05:06:04;;;;;;;12.48;2.70;;;;;;;;;;4920010;29;20060;-68
2022/03/07 05:08:31;;;;;;;16.00;2.72;;;;;;;;;;4903941;29;20063;-68
2022/03/07 05:10:58;;;;;;;10.43;2.33;;;;;;;;;;4904204;29;20056;-68
2022/03/07 05:13:25;;;;;;;14.82;2.28;;;;;;;;;;4915115;29;20118;-68
2022/03/07 05:15:54;;;;;;;10.77;2.40;;;;;;;;;;4899226;29;20135;-69
2022/03/07 05:18:21;;;;;;;6.20;2.20;;;;;;;;;;4920446;29;20052;-68
2022/03/07 05:20:48;;;;;;;8.05;2.25;;;;;;;;;;4915558;29;20055;-68
2022/03/07 05:23:16;;;;;;;12.82;2.38;;;;;;;;;;4899058;29;20406;-68
2022/03/07 05:25:43;;;;;;;12.25;2.20;;;;;;;;;;4916353;29;20060;-68
2022/03/07 05:28:10;;;;;;;12.10;2.28;;;;;;;;;;4917414;29;20712;-68
2022/03/07 05:30:37;;;;;;;7.03;2.10;;;;;;;;;;4919001;29;20048;-68
2022/03/07 05:33:06;;;;;;;6.90;1.70;;;;;;;;;;4916397;29;20044;-68
2022/03/07 05:35:33;;;;;;;11.32;2.38;;;;;;;;;;4914320;29;20056;-68
2022/03/07 05:38:00;;;;;;;8.50;2.30;;;;;;;;;;4905287;29;20059;-68
2022/03/07 05:40:28;;;;;;;13.63;2.15;;;;;;;;;;4896891;29;20055;-68
2022/03/07 05:42:55;;;;;;;6.75;2.63;;;;;;;;;;4915464;29;20076;-68
2022/03/07 05:45:22;;;;;;;8.38;2.60;;;;;;;;;;4901865;29;20068;-69
2022/03/07 05:47:49;;;;;;;10.50;2.58;;;;;;;;;;4902815;29;20056;-68
2022/03/07 05:50:18;;;;;;;8.05;2.42;;;;;;;;;;4897219;29;20064;-68
2022/03/07 05:52:45;;;;;;;6.72;2.05;;;;;;;;;;4911643;29;20052;-68
2022/03/07 05:55:12;;;;;;;11.45;2.33;;;;;;;;;;4892830;29;20518;-68
2022/03/07 05:57:40;;;;;;;9.45;2.20;;;;;;;;;;4893104;29;20063;-68
2022/03/07 06:00:08;;;;;;;11.95;2.90;;;;;;;;;;4909910;29;20104;-68
2022/03/07 06:02:35;;;;;;;13.52;2.53;;;;;;;;;;4910131;29;20725;-68
2022/03/07 06:05:03;;;;;;;11.02;3.38;;;;;;;;;;4914218;29;20081;-68
2022/03/07 06:07:31;;;;;;;16.23;3.15;;;;;;;;;;4914943;29;20121;-69
2022/03/07 06:09:59;;;;;;;12.00;3.55;;;;;;;;;;4897815;29;20052;-69
2022/03/07 06:12:26;;;;;;;9.68;3.97;;;;;;;;;;4902955;29;20067;-69
2022/03/07 06:14:54;;;;;;;13.65;4.13;;;;;;;;;;4909907;29;20051;-69
2022/03/07 06:17:22;;;;;;;12.75;4.32;;;;;;;;;;4893631;29;20052;-68
2022/03/07 06:19:49;;;;;;;11.23;3.47;;;;;;;;;;4910059;29;20055;-68
2022/03/07 06:22:16;;;;;;;9.20;3.75;;;;;;;;;;4905953;29;20059;-68
2022/03/07 06:24:47;;;;;;;11.15;3.97;;;;;;;;;;4891458;29;20067;-68
2022/03/07 06:27:15;;;;;;;9.23;3.13;;;;;;;;;;4913670;29;21797;-68
2022/03/07 06:29:42;;;;;;;9.48;3.45;;;;;;;;;;4897010;29;20055;-68
2022/03/07 06:32:10;;;;;;;20.52;3.78;;;;;;;;;;4909707;29;20051;-68
2022/03/07 06:34:37;;;;;;;10.07;3.75;;;;;;;;;;4912564;29;20068;-69
2022/03/07 06:37:04;;;;;;;7.40;3.58;;;;;;;;;;4913719;29;20047;-68
2022/03/07 06:39:32;;;;;;;7.85;3.03;;;;;;;;;;4893500;29;20059;-69
2022/03/07 06:42:00;;;;;;;8.88;3.53;;;;;;;;;;4916549;29;20451;-69
2022/03/07 06:44:27;;;;;;;10.50;4.03;;;;;;;;;;4898446;29;20059;-68
2022/03/07 06:46:55;;;;;;;14.05;4.03;;;;;;;;;;4915826;29;20051;-68
2022/03/07 06:49:22;;;;;;;9.35;3.80;;;;;;;;;;4900257;29;20063;-68
2022/03/07 06:51:49;;;;;;;15.63;3.70;;;;;;;;;;4912412;29;20051;-68
2022/03/07 06:54:16;;;;;;;10.30;3.72;;;;;;;;;;4915805;29;20059;-68
2022/03/07 06:56:44;;;;;;;12.93;3.08;;;;;;;;;;4912683;29;20060;-68
2022/03/07 06:59:12;;;;;;;10.15;3.25;;;;;;;;;;4899093;29;20114;-68
2022/03/07 07:01:39;;;;;;;8.90;3.63;;;;;;;;;;4899398;29;20093;-68
2022/03/07 07:04:07;;;;;;;8.95;3.53;;;;;;;;;;4917441;29;20066;-68
2022/03/07 07:06:34;;;;;;;8.48;3.65;;;;;;;;;;4915870;29;20063;-68
2022/03/07 07:09:01;;;;;;;10.70;4.68;;;;;;;;;;4916672;29;21414;-69
2022/03/07 07:11:28;;;;;;;10.00;4.65;;;;;;;;;;4918900;29;20052;-68
2022/03/07 07:13:56;;;;;;;16.90;5.90;;;;;;;;;;4913911;29;20214;-68
2022/03/07 07:16:24;;;;;;;11.07;5.63;;;;;;;;;;4900747;29;20048;-68
2022/03/07 07:18:51;;;;;;;11.52;4.97;;;;;;;;;;4926691;29;20645;-68
2022/03/07 07:21:18;;;;;;;13.35;3.88;;;;;;;;;;4919320;29;20075;-68
2022/03/07 07:23:46;;;;;;;6.40;3.67;;;;;;;;;;4904264;29;20060;-69
2022/03/07 07:26:13;;;;;;;11.30;3.75;;;;;;;;;;4906997;29;20059;-69
2022/03/07 07:28:40;;;;;;;7.07;3.38;;;;;;;;;;4900897;29;20101;-69
2022/03/07 07:31:08;;;;;;;14.32;4.72;;;;;;;;;;4917962;29;20044;-69
2022/03/07 07:33:36;;;;;;;11.45;4.05;;;;;;;;;;4903788;29;20081;-68
2022/03/07 07:36:05;;;;;;;7.70;3.75;;;;;;;;;;4914910;29;20056;-68
2022/03/07 07:38:32;;;;;;;10.88;4.28;;;;;;;;;;4917271;29;20058;-68
2022/03/07 07:41:00;;;;;;;14.45;4.05;;;;;;;;;;4898273;29;20075;-68
2022/03/07 07:43:27;;;;;;;9.98;3.28;;;;;;;;;;4898411;29;20083;-68
2022/03/07 07:45:54;;;;;;;8.45;3.00;;;;;;;;;;4900658;29;20063;-69
2022/03/07 07:48:21;;;;;;;10.48;2.90;;;;;;;;;;4916867;29;20140;-69
2022/03/07 07:50:50;;;;;;;6.20;2.28;;;;;;;;;;4920501;29;20047;-69
2022/03/07 07:53:18;;;;;;;8.32;2.70;;;;;;;;;;4921565;29;20511;-69
2022/03/07 07:55:45;;;;;;;10.48;2.88;;;;;;;;;;4901696;29;20067;-68
2022/03/07 07:58:12;;;;;;;11.80;2.80;;;;;;;;;;4916215;29;20043;-68
2022/03/07 08:00:39;;;;;;;9.00;3.78;;;;;;;;;;4933551;28;20059;-68
2022/03/07 08:03:07;;;;;;;10.45;3.45;;;;;;;;;;4915552;29;20108;-68
2022/03/07 08:05:35;;;;;;;6.25;2.60;;;;;;;;;;4920688;29;20127;-69
2022/03/07 08:08:03;;;;;;;6.95;3.17;;;;;;;;;;4902988;29;20529;-69
2022/03/07 08:10:30;;;;;;;22.25;4.53;;;;;;;;;;4922543;29;20626;-69
2022/03/07 08:12:59;;;;;;;9.27;3.42;;;;;;;;;;4920845;29;20467;-69
2022/03/07 08:15:26;;;;;;;11.23;3.55;;;;;;;;;;4918655;29;20087;-68
2022/03/07 08:17:53;;;;;;;8.23;3.13;;;;;;;;;;4898749;29;20052;-68
2022/03/07 08:20:22;;;;;;;10.75;3.35;;;;;;;;;;4914224;29;20131;-68
2022/03/07 08:22:50;;;;;;;6.95;3.00;;;;;;;;;;4920007;29;20478;-69
2022/03/07 08:25:19;;;;;;;9.23;2.95;;;;;;;;;;4930405;29;20063;-69
2022/03/07 08:27:46;;;;;;;11.32;3.53;;;;;;;;;;4923699;29;20052;-69
2022/03/07 08:30:14;;;;;;;7.95;3.40;;;;;;;;;;4926447;29;20043;-69
2022/03/07 08:32:41;;;;;;;17.75;3.58;;;;;;;;;;4929448;29;20056;-69
2022/03/07 08:35:10;;;;;;;9.82;2.92;;;;;;;;;;4921587;29;20056;-69
2022/03/07 08:37:38;;;;;;;8.35;2.67;;;;;;;;;;4908174;29;20052;-69
2022/03/07 08:40:06;;;;;;;9.38;2.97;;;;;;;;;;4906317;29;20060;-69
2022/03/07 08:42:34;;;;;;;7.15;2.70;;;;;;;;;;4923748;29;20044;-69
2022/03/07 08:45:02;;;;;;;11.38;2.60;;;;;;;;;;4901744;29;20063;-69
2022/03/07 08:47:29;;;;;;;9.07;2.47;;;;;;;;;;4924486;29;20795;-69
2022/03/07 08:49:56;;;;;;;10.00;2.80;;;;;;;;;;4906284;29;20137;-69
2022/03/07 08:52:24;;;;;;;11.32;3.25;;;;;;;;;;4906584;29;20970;-68
2022/03/07 08:54:51;;;;;;;9.18;3.35;;;;;;;;;;4923051;29;20059;-68
2022/03/07 08:57:18;;;;;;;8.88;2.88;;;;;;;;;;4907454;29;20063;-69
2022/03/07 08:59:47;;;;;;;10.15;3.00;;;;;;;;;;4923122;29;20289;-69
2022/03/07 09:02:14;;;;;;;12.77;2.75;;;;;;;;;;4906691;29;20063;-69
2022/03/07 09:04:41;;;;;;;7.80;2.50;;;;;;;;;;4907689;29;20418;-69
2022/03/07 09:07:09;;;;;;;7.93;2.25;;;;;;;;;;4936807;28;20060;-69
2022/03/07 09:09:36;;;;;;;6.72;2.55;;;;;;;;;;4907461;29;20074;-69
2022/03/07 09:12:05;;;;;;;10.75;2.78;;;;;;;;;;4904273;29;20054;-69
2022/03/07 09:14:32;;;;;;;9.25;1.85;;;;;;;;;;4906774;29;20067;-69
2022/03/07 09:17:01;;;;;;;8.70;2.58;;;;;;;;;;4908259;29;20070;-69
2022/03/07 09:19:29;;;;;;;6.38;2.20;;;;;;;;;;4904019;29;20490;-68
2022/03/07 09:21:56;;;;;;;5.68;1.75;;;;;;;;;;4922572;29;20412;-68
2022/03/07 09:24:23;;;;;;;9.43;2.00;;;;;;;;;;4901528;29;20051;-68
2022/03/07 09:26:50;;;;;;;7.38;2.00;;;;;;;;;;4905307;29;20056;-68
2022/03/07 09:29:18;;;;;;;7.47;2.30;;;;;;;;;;4904659;29;20139;-69
2022/03/07 09:31:46;;;;;;;7.18;1.70;;;;;;;;;;4922495;29;21242;-69
2022/03/07 09:34:14;;;;;;;6.28;1.90;;;;;;;;;;4901533;29;20096;-69
2022/03/07 09:36:42;;;;;;;5.18;1.80;;;;;;;;;;4926168;29;20078;-69
2022/03/07 09:39:09;;;;;;;7.22;1.75;;;;;;;;;;4920732;29;20127;-69
2022/03/07 09:41:36;;;;;;;7.15;1.70;;;;;;;;;;4920766;29;20788;-69
2022/03/07 09:44:03;;;;;;;4.75;1.70;;;;;;;;;;4902788;29;20067;-69
2022/03/07 09:46:31;;;;;;;7.22;1.50;;;;;;;;;;4905857;29;20335;-69
2022/03/07 09:48:58;;;;;;;7.47;1.50;;;;;;;;;;4921772;29;20055;-69
2022/03/07 09:51:26;;;;;;;6.47;1.48;;;;;;;;;;4921154;29;20055;-69
2022/03/07 09:53:54;;;;;;;8.50;1.73;;;;;;;;;;4925699;29;20079;-69
2022/03/07 09:56:21;;;;;;;4.40;1.30;;;;;;;;;;4906060;29;20493;-69
2022/03/07 09:58:48;;;;;;;8.50;1.30;;;;;;;;;;4920026;29;20077;-69
2022/03/07 10:01:18;;;;;;;4.45;1.58;;;;;;;;;;4921126;29;20062;-69
2022/03/07 10:03:46;;;;;;;11.82;1.65;;;;;;;;;;4916893;29;20063;-69
2022/03/07 10:06:14;;;;;;;6.57;1.65;;;;;;;;;;4916946;29;20486;-69
2022/03/07 10:08:52;;;;;;;5.63;1.45;;;;;;;;;;4919954;29;20627;-69
2022/03/07 10:11:19;;;;;;;6.38;1.52;;;;;;;;;;4914366;29;20437;-69
2022/03/07 10:13:50;;;;;;;5.00;1.60;;;;;;;;;;4915201;29;20052;-69
2022/03/07 10:16:20;;;;;;;4.60;1.30;;;;;;;;;;4897851;29;20059;-69
2022/03/07 10:18:50;;;;;;;6.18;1.80;;;;;;;;;;4914488;29;20052;-69
2022/03/07 10:21:25;;;;;;;8.27;1.65;;;;;;;;;;4917316;29;20331;-69
2022/03/07 10:23:55;;;;;;;4.68;1.40;;;;;;;;;;4908567;29;20052;-69
2022/03/07 10:26:23;;;;;;;9.68;1.63;;;;;;;;;;4901927;29;20068;-69
2022/03/07 10:28:54;;;;;;;5.85;1.30;;;;;;;;;;4926071;29;20100;-69
2022/03/07 10:31:22;;;;;;;5.88;1.90;;;;;;;;;;4922942;29;20502;-69
2022/03/07 10:34:00;;;;;;;4.55;1.60;;;;;;;;;;4915921;29;20073;-69
2022/03/07 10:36:31;;;;;;;5.93;1.58;;;;;;;;;;4917160;29;20052;-69
2022/03/07 10:38:59;;;;;;;5.95;1.70;;;;;;;;;;4895559;29;20157;-69
2022/03/07 10:41:34;;;;;;;16.25;1.95;;;;;;;;;;4918165;29;20051;-69
2022/03/07 10:44:01;;;;;;;8.77;1.73;;;;;;;;;;4902005;29;20066;-69
2022/03/07 10:46:28;;;;;;;5.40;1.60;;;;;;;;;;4902073;29;20051;-69
2022/03/07 10:48:55;;;;;;;5.35;1.52;;;;;;;;;;4921982;29;20061;-69
2022/03/07 10:51:25;;;;;;;4.55;1.50;;;;;;;;;;4898731;29;20565;-69
2022/03/07 10:53:52;;;;;;;6.80;1.70;;;;;;;;;;4926617;29;20119;-69
2022/03/07 10:56:23;;;;;;;6.05;1.60;;;;;;;;;;4918250;29;20103;-69
2022/03/07 10:58:56;;;;;;;5.93;1.85;;;;;;;;;;4904988;29;20055;-69
2022/03/07 11:01:30;;;;;;;13.13;2.08;;;;;;;;;;4905619;29;20051;-69
2022/03/07 11:03:57;;;;;;;4.72;1.90;;;;;;;;;;4923552;29;20051;-69
2022/03/07 11:06:26;;;;;;;6.47;2.03;;;;;;;;;;4902380;29;20059;-69
2022/03/07 11:08:53;;;;;;;7.72;1.95;;;;;;;;;;4923667;29;20664;-69
2022/03/07 11:11:23;;;;;;;7.00;1.75;;;;;;;;;;4896901;29;20131;-69
2022/03/07 11:13:55;;;;;;;5.35;1.75;;;;;;;;;;4915238;29;20379;-69
2022/03/07 11:16:23;;;;;;;7.07;1.98;;;;;;;;;;4920235;29;20048;-69
2022/03/07 11:18:54;;;;;;;4.32;1.67;;;;;;;;;;4920868;29;20411;-69
2022/03/07 11:21:21;;;;;;;6.95;1.90;;;;;;;;;;4905699;29;20093;-69
2022/03/07 11:23:49;;;;;;;7.88;1.70;;;;;;;;;;4920494;29;20047;-69
2022/03/07 11:26:20;;;;;;;5.80;1.85;;;;;;;;;;4900454;29;20066;-69
2022/03/07 11:28:51;;;;;;;7.38;1.80;;;;;;;;;;4919969;29;20066;-69
2022/03/07 11:31:21;;;;;;;6.68;1.92;;;;;;;;;;4919069;29;20126;-69
2022/03/07 11:33:53;;;;;;;4.95;1.60;;;;;;;;;;4921836;29;20371;-69
2022/03/07 11:36:21;;;;;;;5.10;1.90;;;;;;;;;;4915429;29;20052;-69
2022/03/07 11:38:52;;;;;;;5.90;1.48;;;;;;;;;;4919295;29;20055;-69
2022/03/07 11:41:25;;;;;;;3.85;1.83;;;;;;;;;;4919995;29;20430;-69
2022/03/07 11:43:54;;;;;;;7.82;2.20;;;;;;;;;;4917626;29;20119;-69
2022/03/07 11:46:22;;;;;;;3.67;1.50;;;;;;;;;;4898640;29;20472;-69
2022/03/07 11:48:49;;;;;;;4.80;1.65;;;;;;;;;;4904167;29;20087;-69
2022/03/07 11:51:17;;;;;;;3.85;1.40;;;;;;;;;;4916786;29;20103;-69
2022/03/07 11:53:45;;;;;;;4.68;1.67;;;;;;;;;;4905603;29;20111;-69
2022/03/07 11:56:17;;;;;;;5.05;1.92;;;;;;;;;;4904514;29;20056;-69
2022/03/07 11:58:48;;;;;;;6.95;1.63;;;;;;;;;;4906270;29;20123;-67
2022/03/07 12:01:17;;;;;;;4.65;1.65;;;;;;;;;;4920383;29;20051;-69
2022/03/07 12:03:44;;;;;;;5.28;1.30;;;;;;;;;;4910295;29;20091;-69
2022/03/07 12:06:13;;;;;;;5.82;1.70;;;;;;;;;;4923917;29;20082;-69
2022/03/07 12:08:48;;;;;;;7.40;2.00;;;;;;;;;;4921960;29;20717;-69
2022/03/07 12:11:25;;;;;;;4.55;1.90;;;;;;;;;;4908085;29;20387;-69
2022/03/07 12:13:53;;;;;;;6.10;1.70;;;;;;;;;;4923313;29;20047;-69
2022/03/07 12:16:28;;;;;;;4.50;1.80;;;;;;;;;;4926684;29;20502;-69
2022/03/07 12:18:56;;;;;;;5.60;1.55;;;;;;;;;;4926156;29;20071;-69
2022/03/07 12:21:27;;;;;;;5.40;1.60;;;;;;;;;;4922347;29;20052;-69
2022/03/07 12:23:54;;;;;;;6.32;1.95;;;;;;;;;;4924377;29;20060;-69
2022/03/07 12:26:21;;;;;;;5.82;1.70;;;;;;;;;;4900972;29;20074;-69
2022/03/07 12:28:48;;;;;;;4.25;1.88;;;;;;;;;;4901526;29;20056;-69
2022/03/07 12:31:16;;;;;;;4.65;1.60;;;;;;;;;;4906002;29;20064;-69
2022/03/07 12:33:45;;;;;;;6.85;1.60;;;;;;;;;;4918954;29;20051;-69
2022/03/07 12:36:14;;;;;;;7.57;1.75;;;;;;;;;;4917976;29;20394;-69
2022/03/07 12:38:45;;;;;;;5.25;1.92;;;;;;;;;;4922234;29;20055;-69
2022/03/07 12:41:13;;;;;;;4.55;1.50;;;;;;;;;;4926440;29;20131;-69
2022/03/07 12:43:40;;;;;;;5.72;1.67;;;;;;;;;;4923602;29;20119;-67
2022/03/07 12:46:08;;;;;;;7.00;1.70;;;;;;;;;;4923893;29;20521;-67
2022/03/07 12:48:36;;;;;;;5.95;1.92;;;;;;;;;;4923750;29;20048;-67
2022/03/07 12:51:09;;;;;;;3.92;1.40;;;;;;;;;;4905223;29;20165;-69
2022/03/07 12:53:37;;;;;;;5.85;1.48;;;;;;;;;;4927288;29;20071;-69
2022/03/07 12:56:04;;;;;;;9.45;1.90;;;;;;;;;;4928347;29;20048;-69
2022/03/07 12:58:32;;;;;;;5.80;1.88;;;;;;;;;;4921899;29;20051;-69
2022/03/07 13:01:02;;;;;;;10.43;1.80;;;;;;;;;;4904861;29;20055;-69
2022/03/07 13:03:36;;;;;;;6.40;1.55;;;;;;;;;;4926160;29;20541;-67
2022/03/07 13:06:04;;;;;;;4.47;1.58;;;;;;;;;;4922693;29;20104;-69
2022/03/07 13:08:32;;;;;;;4.72;1.50;;;;;;;;;;4921264;29;20056;-71
2022/03/07 13:10:59;;;;;;;7.40;1.50;;;;;;;;;;4904107;29;20059;-69
2022/03/07 13:13:27;;;;;;;9.05;1.50;;;;;;;;;;4921890;29;20075;-70
2022/03/07 13:15:54;;;;;;;4.65;1.55;;;;;;;;;;4903265;29;20048;-70
2022/03/07 13:18:24;;;;;;;5.22;1.63;;;;;;;;;;4904782;29;20111;-70
2022/03/07 13:20:51;;;;;;;8.63;1.60;;;;;;;;;;4922430;29;20051;-70
2022/03/07 13:23:18;;;;;;;6.07;1.85;;;;;;;;;;4918336;29;20051;-67
2022/03/07 13:25:47;;;;;;;7.68;1.73;;;;;;;;;;4901032;29;20057;-68
2022/03/07 13:28:26;;;;;;;6.35;1.77;;;;;;;;;;4902101;29;20407;-68
2022/03/07 13:30:54;;;;;;;5.45;1.55;;;;;;;;;;4894696;29;20178;-68
2022/03/07 13:33:23;;;;;;;6.18;1.40;;;;;;;;;;4919386;29;20491;-68
2022/03/07 13:35:50;;;;;;;6.57;1.90;;;;;;;;;;4916365;29;20159;-68
2022/03/07 13:38:21;;;;;;;6.45;1.50;;;;;;;;;;4918458;29;20111;-68
2022/03/07 13:40:50;;;;;;;7.82;1.65;;;;;;;;;;4918224;29;20146;-68
2022/03/07 13:43:25;;;;;;;11.52;1.70;;;;;;;;;;4914342;29;20071;-68
2022/03/07 13:45:52;;;;;;;6.22;1.70;;;;;;;;;;4916686;29;20059;-69
2022/03/07 13:48:20;;;;;;;8.15;2.42;;;;;;;;;;4916539;29;20063;-68
2022/03/07 13:50:51;;;;;;;6.20;1.40;;;;;;;;;;4900999;29;20151;-68
2022/03/07 13:53:20;;;;;;;8.52;1.98;;;;;;;;;;4902436;29;20490;-68
2022/03/07 13:55:50;;;;;;;8.02;1.95;;;;;;;;;;4921572;29;20083;-68
2022/03/07 13:58:21;;;;;;;10.27;2.00;;;;;;;;;;4921112;29;20166;-68
2022/03/07 14:00:48;;;;;;;7.10;2.03;;;;;;;;;;4904238;29;20051;-68
2022/03/07 14:03:16;;;;;;;8.75;2.15;;;;;;;;;;4925235;29;20066;-68
2022/03/07 14:05:45;;;;;;;6.75;1.77;;;;;;;;;;4923649;29;20154;-68
2022/03/07 14:08:12;;;;;;;9.00;1.88;;;;;;;;;;4919799;29;20475;-68
2022/03/07 14:10:40;;;;;;;5.45;1.67;;;;;;;;;;4918607;29;20052;-68
2022/03/07 14:13:07;;;;;;;5.93;1.60;;;;;;;;;;4917093;29;20574;-68
2022/03/07 14:15:37;;;;;;;5.35;1.92;;;;;;;;;;4917716;29;20048;-68
2022/03/07 14:18:05;;;;;;;9.45;2.13;;;;;;;;;;4917833;29;20807;-68
2022/03/07 14:20:34;;;;;;;6.80;1.90;;;;;;;;;;4914527;29;20555;-68
2022/03/07 14:23:01;;;;;;;10.45;2.55;;;;;;;;;;4921355;29;20112;-68
2022/03/07 14:25:29;;;;;;;6.45;1.77;;;;;;;;;;4915359;29;20499;-68
2022/03/07 14:27:57;;;;;;;6.28;1.77;;;;;;;;;;4916478;29;20052;-68
2022/03/07 14:30:24;;;;;;;4.30;1.60;;;;;;;;;;4902942;29;20578;-68
2022/03/07 14:32:53;;;;;;;7.45;1.83;;;;;;;;;;4904017;29;20059;-68
2022/03/07 14:35:20;;;;;;;7.82;2.05;;;;;;;;;;4899798;29;20700;-68
2022/03/07 14:37:47;;;;;;;7.88;1.75;;;;;;;;;;4904145;29;20052;-68
2022/03/07 14:40:16;;;;;;;7.72;1.83;;;;;;;;;;4907653;29;20596;-68
2022/03/07 14:42:44;;;;;;;9.40;1.88;;;;;;;;;;4904828;29;20067;-68